createdAt,value
2022-10-23T00:01:48.788Z,4.93
2022-10-23T00:06:47.418Z,7.53
2022-10-23T00:11:48.031Z,7.90
2022-10-23T00:16:45.933Z,12.55
2022-10-23T00:21:43.198Z,7.43
2022-10-23T00:26:41.176Z,6.15
2022-10-23T00:31:39.121Z,6.05
2022-10-23T00:36:37.364Z,6.70
2022-10-23T00:41:35.784Z,13.98
2022-10-23T00:46:34.034Z,10.02
2022-10-23T00:51:38.774Z,8.10
2022-10-23T00:56:39.731Z,11.13
2022-10-23T01:01:37.801Z,6.50
2022-10-23T01:06:43.082Z,9.55
2022-10-23T01:11:53.154Z,8.38
2022-10-23T01:17:16.989Z,8.23
2022-10-23T01:22:45.023Z,7.32
2022-10-23T01:27:45.481Z,7.38
2022-10-23T01:32:53.022Z,6.90
2022-10-23T01:38:01.350Z,5.43
2022-10-23T01:43:03.474Z,4.65
2022-10-23T01:48:02.998Z,5.72
2022-10-23T01:53:00.559Z,13.27
2022-10-23T01:58:00.849Z,6.20
2022-10-23T02:02:59.063Z,6.18
2022-10-23T02:07:57.879Z,7.05
2022-10-23T02:13:14.163Z,9.48
2022-10-23T02:18:27.205Z,5.55
2022-10-23T02:24:03.413Z,9.30
2022-10-23T02:29:12.874Z,6.72
2022-10-23T02:34:10.204Z,6.18
2022-10-23T02:39:07.740Z,8.20
2022-10-23T02:44:29.538Z,6.82
2022-10-23T02:49:45.043Z,8.45
2022-10-23T02:54:58.978Z,9.32
2022-10-23T03:00:11.675Z,8.02
2022-10-23T03:05:12.531Z,16.33
2022-10-23T03:10:10.180Z,7.97
2022-10-23T03:15:12.306Z,11.23
2022-10-23T03:20:10.444Z,5.07
2022-10-23T03:25:10.815Z,21.33
2022-10-23T03:30:09.036Z,4.93
2022-10-23T03:35:06.715Z,10.30
2022-10-23T03:40:05.367Z,7.10
2022-10-23T03:45:09.039Z,14.95
2022-10-23T03:50:08.560Z,8.70
2022-10-23T03:55:06.861Z,6.80
2022-10-23T04:00:17.563Z,7.10
2022-10-23T04:05:24.686Z,14.60
2022-10-23T04:10:22.385Z,8.45
2022-10-23T04:15:20.445Z,8.63
2022-10-23T04:25:18.261Z,12.20
2022-10-23T04:30:16.846Z,6.45
2022-10-23T04:35:14.291Z,9.82
2022-10-23T04:40:11.931Z,3.78
2022-10-23T04:45:09.582Z,5.50
2022-10-23T04:50:07.246Z,4.28
2022-10-23T04:55:05.351Z,2.50
2022-10-23T05:00:03.116Z,7.63
2022-10-23T05:05:00.396Z,2.42
2022-10-23T05:09:57.648Z,3.42
2022-10-23T05:14:54.949Z,3.97
2022-10-23T05:19:55.580Z,5.75
2022-10-23T05:25:02.308Z,2.05
2022-10-23T05:30:02.863Z,4.30
2022-10-23T05:35:03.613Z,2.88
2022-10-23T05:40:01.657Z,13.65
2022-10-23T05:44:59.199Z,3.47
2022-10-23T05:49:56.518Z,6.15
2022-10-23T05:54:53.820Z,4.70
2022-10-23T05:59:51.014Z,2.63
2022-10-23T06:04:48.208Z,3.50
2022-10-23T06:09:45.368Z,5.35
2022-10-23T06:14:42.593Z,5.93
2022-10-23T06:19:39.974Z,12.32
2022-10-23T06:24:37.439Z,9.00
2022-10-23T06:29:34.712Z,10.80
2022-10-23T06:34:31.914Z,6.30
2022-10-23T06:39:31.930Z,4.57
2022-10-23T06:44:29.762Z,10.65
2022-10-23T06:49:27.019Z,12.55
2022-10-23T06:54:24.289Z,5.38
2022-10-23T06:59:21.839Z,10.05
2022-10-23T07:04:19.099Z,5.50
2022-10-23T07:09:16.389Z,3.00
2022-10-23T07:14:13.624Z,2.38
2022-10-23T07:19:10.869Z,3.20
2022-10-23T07:24:08.718Z,4.28
2022-10-23T07:29:06.064Z,4.32
2022-10-23T07:34:06.768Z,4.38
2022-10-23T07:39:07.145Z,2.72
2022-10-23T07:44:04.599Z,2.28
2022-10-23T07:49:01.843Z,2.03
2022-10-23T07:53:59.128Z,3.03
2022-10-23T07:58:56.654Z,1.92
2022-10-23T08:03:53.986Z,2.92
2022-10-23T08:08:51.624Z,5.75
2022-10-23T08:13:48.798Z,2.47
2022-10-23T08:18:46.243Z,5.45
2022-10-23T08:23:44.279Z,5.53
2022-10-23T08:28:41.789Z,4.50
2022-10-23T08:33:39.310Z,1.77
2022-10-23T08:38:36.591Z,3.95
2022-10-23T08:43:46.282Z,3.53
2022-10-23T08:48:55.351Z,3.58
2022-10-23T08:54:02.162Z,3.88
2022-10-23T08:59:20.371Z,2.50
2022-10-23T09:04:17.547Z,5.45
2022-10-23T09:09:29.466Z,5.28
2022-10-23T09:14:54.276Z,3.53
2022-10-23T09:20:01.177Z,1.73
2022-10-23T09:25:16.338Z,4.82
2022-10-23T09:30:24.656Z,2.65
2022-10-23T09:35:28.916Z,4.90
2022-10-23T09:40:46.261Z,4.68
2022-10-23T09:45:44.103Z,1.95
2022-10-23T09:51:09.712Z,2.70
2022-10-23T09:56:33.549Z,8.20
2022-10-23T10:01:34.776Z,2.08
2022-10-23T10:06:33.870Z,10.43
2022-10-23T10:11:41.383Z,2.63
2022-10-23T10:16:57.484Z,3.88
2022-10-23T10:22:23.133Z,1.52
2022-10-23T10:27:29.037Z,6.55
2022-10-23T10:32:44.339Z,3.63
2022-10-23T10:38:03.755Z,2.78
2022-10-23T10:43:24.678Z,3.97
2022-10-23T10:48:31.093Z,6.00
2022-10-23T10:53:47.278Z,3.83
2022-10-23T10:59:00.607Z,3.22
2022-10-23T11:04:19.043Z,6.50
2022-10-23T11:09:28.122Z,1.58
2022-10-23T11:14:33.270Z,4.65
2022-10-23T11:19:41.553Z,4.20
2022-10-23T11:25:31.587Z,7.25
2022-10-23T11:30:49.778Z,4.00
2022-10-23T11:36:18.034Z,2.75
2022-10-23T11:41:23.858Z,3.35
2022-10-23T11:46:25.663Z,4.57
2022-10-23T11:51:31.444Z,2.53
2022-10-23T11:56:31.324Z,1.25
2022-10-23T12:01:45.753Z,1.13
2022-10-23T12:06:56.984Z,1.20
2022-10-23T12:12:09.099Z,6.07
2022-10-23T12:17:24.543Z,4.82
2022-10-23T12:22:31.283Z,5.85
2022-10-23T12:27:48.902Z,7.03
2022-10-23T12:33:02.140Z,1.90
2022-10-23T12:38:12.852Z,2.08
2022-10-23T12:43:30.688Z,3.17
2022-10-23T12:48:28.053Z,1.50
2022-10-23T12:53:25.548Z,1.63
2022-10-23T12:58:34.432Z,2.40
2022-10-23T13:03:34.068Z,2.60
2022-10-23T13:08:42.120Z,7.68
2022-10-23T13:13:41.061Z,3.05
2022-10-23T13:18:42.237Z,7.43
2022-10-23T13:23:42.196Z,6.88
2022-10-23T13:28:44.547Z,5.32
2022-10-23T13:33:47.727Z,1.38
2022-10-23T13:39:06.812Z,1.90
2022-10-23T13:44:20.312Z,2.03
2022-10-23T13:49:18.183Z,1.52
2022-10-23T13:54:22.101Z,2.88
2022-10-23T13:59:19.512Z,2.28
2022-10-23T14:04:18.927Z,3.80
2022-10-23T14:09:18.436Z,1.80
2022-10-23T14:14:16.161Z,1.90
2022-10-23T14:19:13.445Z,4.90
2022-10-23T14:24:10.712Z,3.67
2022-10-23T14:29:10.270Z,4.78
2022-10-23T14:34:11.245Z,2.88
2022-10-23T14:39:08.487Z,4.90
2022-10-23T14:44:05.742Z,2.63
2022-10-23T14:49:03.072Z,7.13
2022-10-23T14:54:05.525Z,2.35
2022-10-23T14:59:03.010Z,6.88
2022-10-23T15:04:00.325Z,2.88
2022-10-23T15:08:57.873Z,1.58
2022-10-23T15:13:55.861Z,3.65
2022-10-23T15:18:53.149Z,5.35
2022-10-23T15:23:54.979Z,14.95
2022-10-23T15:29:06.957Z,2.25
2022-10-23T15:34:06.187Z,10.57
2022-10-23T15:39:08.161Z,6.60
2022-10-23T15:44:06.833Z,12.82
2022-10-23T15:49:04.781Z,10.10
2022-10-23T15:54:02.001Z,9.48
2022-10-23T15:58:59.412Z,8.35
2022-10-23T16:03:56.967Z,10.52
2022-10-23T16:13:58.150Z,19.20
2022-10-23T16:18:56.070Z,18.75
2022-10-23T16:24:07.919Z,14.50
2022-10-23T16:29:08.343Z,31.58
2022-10-23T16:34:07.044Z,21.65
2022-10-23T16:39:04.727Z,38.67
2022-10-23T16:44:02.400Z,41.58
2022-10-23T16:48:59.732Z,33.78
2022-10-23T16:53:57.452Z,20.85
2022-10-23T16:58:55.175Z,25.67
2022-10-23T17:03:54.169Z,32.13
2022-10-23T17:08:51.996Z,36.30
2022-10-23T17:14:04.650Z,25.48
2022-10-23T17:19:20.665Z,28.65
2022-10-23T17:24:25.042Z,29.73
2022-10-23T17:29:22.850Z,21.80
2022-10-23T17:34:24.036Z,24.17
2022-10-23T17:39:24.541Z,16.53
2022-10-23T17:44:31.122Z,14.52
2022-10-23T17:49:42.781Z,16.25
2022-10-23T17:54:45.154Z,10.32
2022-10-23T17:59:46.360Z,14.48
2022-10-23T18:04:43.661Z,15.85
2022-10-23T18:09:40.948Z,16.00
2022-10-23T18:14:38.728Z,17.77
2022-10-23T18:19:36.780Z,17.10
2022-10-23T18:24:34.067Z,21.70
2022-10-23T18:29:31.382Z,20.05
2022-10-23T18:34:28.650Z,19.55
2022-10-23T18:39:26.219Z,17.67
2022-10-23T18:44:25.485Z,18.23
2022-10-23T18:49:23.558Z,20.57
2022-10-23T18:54:26.822Z,20.33
2022-10-23T18:59:24.338Z,22.88
2022-10-23T19:04:21.665Z,27.65
2022-10-23T19:09:19.283Z,19.15
2022-10-23T19:14:16.660Z,21.10
2022-10-23T19:19:21.482Z,13.70
2022-10-23T19:24:24.595Z,13.05
2022-10-23T19:29:24.018Z,26.20
2022-10-23T19:34:24.869Z,18.73
2022-10-23T19:39:22.555Z,18.35
2022-10-23T19:44:20.774Z,19.02
2022-10-23T19:49:18.791Z,34.83
2022-10-23T19:54:16.258Z,14.10
2022-10-23T19:59:13.584Z,17.10
2022-10-23T20:04:10.860Z,20.02
2022-10-23T20:09:10.055Z,13.57
2022-10-23T20:14:08.087Z,11.98
2022-10-23T20:19:08.100Z,10.05
2022-10-23T20:24:06.099Z,15.60
2022-10-23T20:29:03.712Z,14.75
2022-10-23T20:34:00.995Z,26.15
2022-10-23T20:39:01.295Z,12.70
2022-10-23T20:43:58.957Z,16.15
2022-10-23T20:48:56.280Z,10.82
2022-10-23T20:53:56.489Z,8.10
2022-10-23T21:03:52.793Z,10.23
2022-10-23T21:08:50.080Z,12.63
2022-10-23T21:13:47.716Z,10.63
2022-10-23T21:18:46.636Z,13.10
2022-10-23T21:23:50.351Z,23.47
2022-10-23T21:28:56.377Z,17.00
2022-10-23T21:34:07.839Z,25.00
2022-10-23T21:39:05.239Z,16.27
2022-10-23T21:44:05.112Z,13.55
2022-10-23T21:49:13.033Z,16.63
2022-10-23T21:54:15.004Z,24.63
2022-10-23T21:59:17.999Z,33.00
2022-10-23T22:04:19.798Z,18.92
2022-10-23T22:09:20.106Z,12.85
2022-10-23T22:14:17.623Z,13.95
2022-10-23T22:19:16.873Z,14.60
2022-10-23T22:24:14.514Z,19.52
2022-10-23T22:29:15.905Z,10.82
2022-10-23T22:34:26.752Z,14.43
2022-10-23T22:39:34.030Z,10.07
2022-10-23T22:44:31.485Z,11.18
2022-10-23T22:49:28.844Z,7.70
2022-10-23T22:54:26.251Z,11.80
2022-10-23T22:59:23.455Z,7.72
2022-10-23T23:09:40.401Z,10.38
2022-10-23T23:14:38.066Z,7.88
2022-10-23T23:19:35.581Z,10.50
2022-10-23T23:24:32.926Z,12.77
2022-10-23T23:29:30.847Z,10.05
2022-10-23T23:34:28.705Z,5.47
2022-10-23T23:39:26.525Z,29.90
2022-10-23T23:44:23.982Z,8.48
2022-10-23T23:49:21.710Z,4.60
2022-10-23T23:54:18.891Z,7.68
2022-10-23T23:59:16.251Z,16.42
